createdAt,value
2023-02-25T00:00:41.256Z,12.12
2023-02-25T00:02:46.390Z,12.10
2023-02-25T00:04:48.329Z,12.10
2023-02-25T00:06:50.756Z,11.98
2023-02-25T00:08:54.316Z,12.06
2023-02-25T00:11:03.845Z,12.04
2023-02-25T00:13:17.846Z,12.07
2023-02-25T00:15:21.056Z,12.06
2023-02-25T00:17:23.578Z,12.06
2023-02-25T00:19:27.131Z,12.03
2023-02-25T00:21:29.680Z,12.02
2023-02-25T00:23:32.261Z,12.04
2023-02-25T00:25:34.353Z,12.12
2023-02-25T00:27:37.443Z,12.15
2023-02-25T00:29:39.494Z,12.19
2023-02-25T00:31:42.479Z,12.17
2023-02-25T00:33:45.018Z,12.22
2023-02-25T00:35:48.694Z,12.24
2023-02-25T00:37:52.274Z,12.22
2023-02-25T00:39:54.544Z,12.24
2023-02-25T00:41:56.477Z,12.20
2023-02-25T00:44:01.098Z,12.25
2023-02-25T00:46:03.231Z,12.27
2023-02-25T00:48:07.743Z,12.23
2023-02-25T00:50:11.674Z,12.32
2023-02-25T00:52:15.136Z,12.28
2023-02-25T00:54:17.474Z,12.33
2023-02-25T00:56:20.997Z,12.32
2023-02-25T00:58:23.365Z,12.31
2023-02-25T01:00:25.737Z,12.28
2023-02-25T01:02:27.783Z,12.18
2023-02-25T01:04:29.992Z,12.23
2023-02-25T01:06:34.000Z,12.13
2023-02-25T01:08:39.070Z,12.16
2023-02-25T01:10:41.689Z,12.21
2023-02-25T01:12:43.866Z,12.24
2023-02-25T01:14:45.905Z,12.17
2023-02-25T01:16:49.475Z,12.25
2023-02-25T01:18:54.296Z,12.25
2023-02-25T01:20:57.233Z,12.26
2023-02-25T01:22:59.379Z,12.25
2023-02-25T01:25:01.861Z,12.19
2023-02-25T01:27:04.473Z,12.24
2023-02-25T01:29:08.487Z,12.17
2023-02-25T01:31:18.813Z,12.19
2023-02-25T01:33:21.627Z,12.24
2023-02-25T01:35:23.727Z,12.23
2023-02-25T01:37:27.052Z,12.18
2023-02-25T01:39:30.298Z,12.22
2023-02-25T01:41:34.539Z,12.20
2023-02-25T01:43:36.727Z,12.18
2023-02-25T01:45:43.468Z,12.15
2023-02-25T01:47:50.761Z,12.13
2023-02-25T01:49:53.017Z,12.19
2023-02-25T01:52:11.856Z,12.20
2023-02-25T01:54:14.973Z,12.25
2023-02-25T01:56:21.128Z,12.20
2023-02-25T01:58:23.647Z,12.23
2023-02-25T02:00:27.920Z,12.25
2023-02-25T02:02:33.522Z,12.26
2023-02-25T02:04:42.117Z,12.20
2023-02-25T02:06:50.539Z,12.18
2023-02-25T02:08:52.846Z,12.20
2023-02-25T02:10:56.426Z,12.17
2023-02-25T02:12:58.636Z,12.25
2023-02-25T02:15:04.715Z,12.20
2023-02-25T02:17:18.979Z,12.15
2023-02-25T02:19:35.882Z,12.18
2023-02-25T02:22:17.709Z,12.14
2023-02-25T02:24:22.730Z,12.18
2023-02-25T02:26:51.013Z,12.17
2023-02-25T02:29:19.336Z,12.18
2023-02-25T02:31:39.645Z,12.17
2023-02-25T02:33:57.320Z,12.22
2023-02-25T02:36:06.129Z,12.22
2023-02-25T02:38:29.494Z,12.21
2023-02-25T02:40:58.922Z,12.28
2023-02-25T02:43:11.100Z,12.26
2023-02-25T02:45:16.049Z,12.25
2023-02-25T02:47:25.951Z,12.13
2023-02-25T02:50:00.168Z,12.22
2023-02-25T02:52:08.573Z,12.24
2023-02-25T02:54:14.277Z,12.28
2023-02-25T02:56:20.208Z,12.26
2023-02-25T02:58:57.286Z,12.30
2023-02-25T03:01:12.542Z,12.32
2023-02-25T03:03:22.376Z,12.29
2023-02-25T03:05:28.643Z,12.35
2023-02-25T03:07:35.768Z,12.29
2023-02-25T03:09:54.503Z,12.31
2023-02-25T03:11:56.963Z,12.38
2023-02-25T03:13:59.441Z,12.39
2023-02-25T03:16:06.040Z,12.35
2023-02-25T03:18:22.075Z,12.33
2023-02-25T03:20:42.290Z,12.30
2023-02-25T03:22:47.943Z,12.33
2023-02-25T03:25:01.065Z,12.31
2023-02-25T03:27:26.044Z,12.35
2023-02-25T03:29:31.221Z,12.38
2023-02-25T03:31:43.213Z,12.33
2023-02-25T03:33:54.821Z,12.38
2023-02-25T03:35:59.657Z,12.41
2023-02-25T03:38:20.966Z,12.37
2023-02-25T03:40:26.907Z,12.42
2023-02-25T03:42:33.778Z,12.34
2023-02-25T03:44:42.047Z,12.39
2023-02-25T03:46:47.397Z,12.37
2023-02-25T03:48:52.187Z,12.42
2023-02-25T03:51:02.117Z,12.43
2023-02-25T03:53:05.411Z,12.47
2023-02-25T03:55:39.856Z,12.46
2023-02-25T03:57:47.372Z,12.47
2023-02-25T03:59:49.478Z,12.42
2023-02-25T04:01:53.768Z,12.41
2023-02-25T04:03:55.833Z,12.42
2023-02-25T04:05:58.623Z,12.49
2023-02-25T04:08:01.145Z,12.49
2023-02-25T04:10:10.940Z,12.48
2023-02-25T04:12:13.194Z,12.47
2023-02-25T04:14:15.931Z,12.51
2023-02-25T04:16:17.987Z,12.48
2023-02-25T04:18:21.200Z,12.49
2023-02-25T04:20:23.336Z,12.44
2023-02-25T04:22:25.827Z,12.48
2023-02-25T04:24:27.601Z,12.49
2023-02-25T04:26:29.792Z,12.49
2023-02-25T04:28:32.195Z,12.51
2023-02-25T04:30:34.580Z,12.51
2023-02-25T04:32:36.728Z,12.46
2023-02-25T04:34:39.027Z,12.52
2023-02-25T04:36:41.724Z,12.45
2023-02-25T04:38:44.097Z,12.41
2023-02-25T04:40:46.143Z,12.42
2023-02-25T04:42:48.775Z,12.45
2023-02-25T04:44:50.816Z,12.45
2023-02-25T04:46:53.510Z,12.44
2023-02-25T04:48:56.171Z,12.42
2023-02-25T04:51:02.889Z,12.39
2023-02-25T04:53:04.849Z,12.43
2023-02-25T04:55:10.640Z,12.46
2023-02-25T04:57:13.226Z,12.43
2023-02-25T04:59:16.331Z,12.47
2023-02-25T05:01:18.474Z,12.46
2023-02-25T05:03:20.825Z,12.49
2023-02-25T05:05:23.455Z,12.44
2023-02-25T05:07:25.606Z,12.44
2023-02-25T05:09:27.838Z,12.38
2023-02-25T05:11:29.897Z,12.41
2023-02-25T05:13:32.809Z,12.42
2023-02-25T05:15:35.110Z,12.41
2023-02-25T05:17:37.162Z,12.40
2023-02-25T05:19:39.184Z,12.40
2023-02-25T05:21:41.192Z,12.39
2023-02-25T05:23:44.903Z,12.37
2023-02-25T05:25:47.119Z,12.46
2023-02-25T05:27:49.197Z,12.48
2023-02-25T05:29:51.892Z,12.46
2023-02-25T05:31:55.418Z,12.42
2023-02-25T05:33:57.604Z,12.41
2023-02-25T05:35:59.611Z,12.42
2023-02-25T05:38:02.020Z,12.33
2023-02-25T05:40:04.658Z,12.30
2023-02-25T05:42:07.055Z,12.33
2023-02-25T05:44:11.044Z,12.30
2023-02-25T05:46:14.228Z,12.32
2023-02-25T05:48:16.284Z,12.32
2023-02-25T05:50:18.391Z,12.33
2023-02-25T05:52:20.495Z,12.33
2023-02-25T05:54:22.817Z,12.29
2023-02-25T05:56:26.154Z,12.31
2023-02-25T05:58:28.387Z,12.29
2023-02-25T06:00:30.291Z,12.27
2023-02-25T06:02:33.837Z,12.26
2023-02-25T06:04:36.090Z,12.20
2023-02-25T06:06:38.172Z,12.18
2023-02-25T06:08:42.047Z,12.22
2023-02-25T06:10:44.287Z,12.23
2023-02-25T06:12:48.882Z,12.15
2023-02-25T06:14:50.933Z,12.15
2023-02-25T06:16:57.165Z,12.17
2023-02-25T06:19:01.256Z,12.17
2023-02-25T06:21:05.650Z,12.15
2023-02-25T06:23:07.814Z,12.17
2023-02-25T06:25:10.160Z,12.18
2023-02-25T06:27:12.749Z,12.22
2023-02-25T06:29:15.005Z,12.23
2023-02-25T06:31:19.224Z,12.25
2023-02-25T06:33:21.300Z,12.27
2023-02-25T06:35:23.962Z,12.31
2023-02-25T06:37:26.157Z,12.32
2023-02-25T06:39:28.234Z,12.32
2023-02-25T06:41:30.453Z,12.36
2023-02-25T06:43:32.531Z,12.41
2023-02-25T06:45:34.488Z,12.37
2023-02-25T06:47:36.718Z,12.38
2023-02-25T06:49:38.786Z,12.37
2023-02-25T06:51:40.861Z,12.35
2023-02-25T06:53:44.884Z,12.40
2023-02-25T06:55:47.058Z,12.42
2023-02-25T06:57:49.181Z,12.45
2023-02-25T06:59:53.603Z,12.45
2023-02-25T07:01:55.722Z,12.49
2023-02-25T07:03:57.892Z,12.44
2023-02-25T07:06:00.060Z,12.48
2023-02-25T07:08:02.555Z,12.44
2023-02-25T07:10:05.364Z,12.46
2023-02-25T07:12:07.955Z,12.44
2023-02-25T07:14:10.102Z,12.41
2023-02-25T07:16:14.031Z,12.40
2023-02-25T07:18:16.333Z,12.36
2023-02-25T07:20:18.585Z,12.34
2023-02-25T07:22:22.257Z,12.23
2023-02-25T07:24:27.011Z,12.26
2023-02-25T07:26:29.033Z,12.19
2023-02-25T07:28:31.623Z,12.17
2023-02-25T07:30:34.186Z,12.19
2023-02-25T07:32:36.362Z,12.14
2023-02-25T07:34:39.355Z,12.08
2023-02-25T07:36:41.611Z,12.12
2023-02-25T07:38:44.353Z,12.04
2023-02-25T07:40:46.370Z,12.00
2023-02-25T07:42:48.435Z,11.98
2023-02-25T07:44:52.009Z,11.96
2023-02-25T07:46:54.484Z,11.96
2023-02-25T07:48:56.690Z,11.98
2023-02-25T07:51:10.819Z,11.96
2023-02-25T07:53:12.927Z,11.96
2023-02-25T07:55:15.131Z,11.96
2023-02-25T07:57:17.309Z,11.99
2023-02-25T07:59:23.266Z,12.02
2023-02-25T08:01:27.339Z,11.95
2023-02-25T08:03:29.929Z,11.92
2023-02-25T08:05:36.884Z,11.96
2023-02-25T08:07:41.103Z,11.94
2023-02-25T08:09:43.702Z,11.91
2023-02-25T08:11:46.450Z,11.92
2023-02-25T08:13:48.823Z,11.95
2023-02-25T08:15:50.968Z,11.93
2023-02-25T08:17:56.024Z,11.97
2023-02-25T08:19:58.383Z,11.98
2023-02-25T08:22:00.503Z,11.99
2023-02-25T08:24:02.836Z,12.06
2023-02-25T08:26:05.716Z,12.04
2023-02-25T08:28:07.699Z,11.99
2023-02-25T08:30:10.802Z,11.97
2023-02-25T08:32:12.953Z,11.94
2023-02-25T08:34:15.171Z,11.96
2023-02-25T08:36:20.746Z,11.91
2023-02-25T08:38:22.947Z,11.81
2023-02-25T08:40:25.104Z,11.80
2023-02-25T08:42:27.928Z,11.82
2023-02-25T08:44:30.106Z,11.85
2023-02-25T08:46:40.612Z,11.89
2023-02-25T08:48:42.974Z,11.96
2023-02-25T08:50:45.296Z,11.96
2023-02-25T08:52:47.503Z,12.02
2023-02-25T08:54:50.980Z,12.01
2023-02-25T08:56:55.634Z,12.02
2023-02-25T08:58:57.678Z,12.03
2023-02-25T09:00:59.817Z,12.06
2023-02-25T09:03:02.056Z,12.07
2023-02-25T09:05:04.776Z,12.08
2023-02-25T09:07:06.878Z,12.02
2023-02-25T09:09:09.764Z,12.05
2023-02-25T09:11:11.878Z,12.03
2023-02-25T09:13:14.958Z,12.01
2023-02-25T09:15:17.186Z,12.04
2023-02-25T09:17:19.375Z,12.03
2023-02-25T09:19:21.686Z,12.10
2023-02-25T09:21:24.954Z,12.09
2023-02-25T09:23:27.383Z,11.98
2023-02-25T09:25:30.942Z,12.04
2023-02-25T09:27:33.143Z,12.05
2023-02-25T09:29:37.021Z,12.09
2023-02-25T09:31:40.032Z,12.12
2023-02-25T09:33:43.148Z,12.13
2023-02-25T09:35:45.584Z,12.07
2023-02-25T09:37:50.476Z,12.08
2023-02-25T09:39:52.545Z,12.14
2023-02-25T09:42:38.971Z,12.03
2023-02-25T09:44:45.378Z,12.06
2023-02-25T09:47:11.418Z,12.03
2023-02-25T09:49:26.681Z,11.97
